Time;durP1;ratioP1;P1;durP2;ratioP2;P2;SDS_P1;SDS_P2;PMS_P1;PMS_P2;Temp;Humidity;BMP_temperature;BMP_pressure;BME280_temperature;BME280_humidity;BME280_pressure;Samples;Min_cycle;Max_cycle;Signal;HPM_P1;HPM_P2
2023/01/30 00:01:27;;;;;;;28.30;19.20;;;;;;;-1.14;72.53;100275.17;105855;1253;59612;-77
2023/01/30 00:03:56;;;;;;;30.10;19.00;;;;;;;-1.17;72.54;100277.51;105801;1253;66039;-77
2023/01/30 00:06:24;;;;;;;30.40;18.70;;;;;;;-1.18;72.70;100280.47;105863;1254;59938;-77
2023/01/30 00:08:52;;;;;;;28.20;18.90;;;;;;;-1.18;72.77;100274.59;105877;1256;64284;-78
2023/01/30 00:11:20;;;;;;;28.00;18.70;;;;;;;-1.16;72.77;100273.17;105834;1259;59746;-78
2023/01/30 00:13:49;;;;;;;26.00;18.10;;;;;;;-1.14;72.77;100268.80;105860;1253;59766;-77
2023/01/30 00:16:17;;;;;;;30.80;18.80;;;;;;;-1.14;72.74;100266.04;105979;1256;65420;-77
2023/01/30 00:18:46;;;;;;;28.60;18.50;;;;;;;-1.13;72.75;100268.07;105757;1258;59955;-78
2023/01/30 00:21:15;;;;;;;24.90;16.60;;;;;;;-1.13;72.79;100265.83;105731;1259;65545;-79
2023/01/30 00:23:43;;;;;;;23.50;17.20;;;;;;;-1.13;72.80;100263.77;105851;1254;60489;-78
2023/01/30 00:26:11;;;;;;;26.90;18.10;;;;;;;-1.13;72.76;100259.95;105863;1260;60439;-78
2023/01/30 00:28:40;;;;;;;29.00;18.80;;;;;;;-1.12;72.78;100259.77;105690;1253;66703;-79
2023/01/30 00:31:12;;;;;;;28.40;17.90;;;;;;;-1.14;72.79;100252.03;105570;1257;60553;-79
2023/01/30 00:33:40;;;;;;;27.30;17.50;;;;;;;-1.16;72.80;100248.97;105910;1253;64255;-78
2023/01/30 00:36:09;;;;;;;27.30;16.80;;;;;;;-1.15;72.81;100251.20;105920;1258;60434;-77
2023/01/30 00:38:37;;;;;;;22.80;14.90;;;;;;;-1.16;72.78;100251.05;105797;1253;60515;-77
2023/01/30 00:41:09;;;;;;;23.10;14.90;;;;;;;-1.16;72.79;100243.95;105799;1257;66805;-78
2023/01/30 00:49:19;;;;;;;21.70;14.90;;;;;;;-1.18;72.61;100241.77;105838;1259;60541;-77
2023/01/30 00:51:48;;;;;;;22.70;14.70;;;;;;;-1.18;72.64;100243.67;105835;1253;60455;-77
2023/01/30 00:54:17;;;;;;;22.70;14.60;;;;;;;-1.18;72.51;100238.30;105826;1253;66627;-77
2023/01/30 00:56:45;;;;;;;21.30;14.90;;;;;;;-1.16;72.47;100234.30;105903;1253;60425;-77
2023/01/30 00:59:13;;;;;;;21.00;14.40;;;;;;;-1.14;72.50;100229.75;106018;1253;65646;-77
2023/01/30 01:01:41;;;;;;;22.40;14.90;;;;;;;-1.13;72.36;100224.70;106209;1258;60491;-79
2023/01/30 01:04:09;;;;;;;21.80;15.00;;;;;;;-1.14;72.31;100221.09;105963;1256;61681;-78
2023/01/30 01:06:43;;;;;;;21.80;14.00;;;;;;;-1.16;72.24;100222.35;105746;1259;66767;-78
2023/01/30 01:09:11;;;;;;;19.10;13.50;;;;;;;-1.17;72.14;100226.17;106016;1256;61017;-77
2023/01/30 01:11:40;;;;;;;19.90;13.30;;;;;;;-1.16;72.19;100224.80;105956;1257;65563;-77
2023/01/30 01:14:08;;;;;;;19.40;13.40;;;;;;;-1.16;72.09;100222.89;105753;1253;60444;-78
2023/01/30 01:16:36;;;;;;;20.60;13.30;;;;;;;-1.16;72.04;100217.02;105769;1253;60604;-77
2023/01/30 01:19:04;;;;;;;21.10;13.80;;;;;;;-1.16;71.91;100216.66;105898;1259;66636;-77
2023/01/30 01:21:34;;;;;;;19.60;12.80;;;;;;;-1.18;71.70;100208.95;105938;1254;60480;-77
2023/01/30 01:24:05;;;;;;;18.70;13.10;;;;;;;-1.19;71.68;100210.02;105796;1253;65200;-78
2023/01/30 01:26:34;;;;;;;20.70;12.90;;;;;;;-1.18;71.65;100205.33;105868;1254;60524;-77
2023/01/30 01:29:03;;;;;;;18.80;13.30;;;;;;;-1.17;71.62;100202.86;105905;1256;60531;-77
2023/01/30 01:31:31;;;;;;;20.20;12.30;;;;;;;-1.15;71.56;100199.20;105755;1259;66565;-78
2023/01/30 01:34:00;;;;;;;20.80;13.60;;;;;;;-1.16;71.46;100196.44;105726;1259;60556;-77
2023/01/30 01:36:28;;;;;;;17.90;12.30;;;;;;;-1.16;71.41;100195.41;105853;1254;65645;-77
2023/01/30 01:39:16;;;;;;;19.70;12.90;;;;;;;-1.17;71.27;100197.67;105698;1253;60435;-78
2023/01/30 01:41:45;;;;;;;17.90;12.50;;;;;;;-1.18;71.13;100194.23;105690;1254;60452;-78
2023/01/30 01:44:13;;;;;;;17.10;11.90;;;;;;;-1.18;71.06;100190.64;105859;1259;66260;-78
2023/01/30 01:46:55;;;;;;;18.00;11.30;;;;;;;-1.20;70.82;100185.87;105870;1256;60451;-77
2023/01/30 01:49:27;;;;;;;17.70;11.50;;;;;;;-1.19;70.85;100187.23;105791;1259;65514;-78
2023/01/30 01:52:02;;;;;;;17.70;12.30;;;;;;;-1.20;70.69;100185.70;105891;1257;62425;-77
2023/01/30 01:54:33;;;;;;;16.80;11.90;;;;;;;-1.21;70.59;100184.70;105871;1257;59947;-79
2023/01/30 01:57:04;;;;;;;16.50;10.50;;;;;;;-1.21;70.53;100184.38;105897;1255;66411;-78
2023/01/30 01:59:54;;;;;;;18.00;11.20;;;;;;;-1.22;70.33;100185.27;105848;1253;60451;-76
2023/01/30 02:02:22;;;;;;;17.80;10.90;;;;;;;-1.22;70.29;100183.37;105801;1254;65031;-77
2023/01/30 02:05:01;;;;;;;14.50;10.50;;;;;;;-1.22;70.09;100182.33;105845;1253;60493;-77
2023/01/30 02:07:52;;;;;;;16.80;10.90;;;;;;;-1.21;70.00;100182.27;105964;1253;60418;-79
2023/01/30 02:10:22;;;;;;;16.30;10.50;;;;;;;-1.18;69.88;100179.77;105896;1256;66747;-77
2023/01/30 02:12:51;;;;;;;13.70;9.80;;;;;;;-1.18;69.69;100180.60;105801;1257;60656;-77
2023/01/30 02:15:20;;;;;;;16.20;11.30;;;;;;;-1.18;69.56;100177.52;105927;1257;65635;-76
2023/01/30 02:17:48;;;;;;;15.20;10.10;;;;;;;-1.20;69.54;100173.09;105811;1256;60419;-79
2023/01/30 02:20:24;;;;;;;15.10;9.80;;;;;;;-1.21;69.04;100172.41;105976;1253;60537;-77
2023/01/30 02:22:59;;;;;;;15.50;10.40;;;;;;;-1.21;68.77;100173.14;105921;1259;65834;-77
2023/01/30 02:25:41;;;;;;;16.30;10.60;;;;;;;-1.24;68.38;100169.27;105944;1254;60457;-76
2023/01/30 02:28:27;;;;;;;16.70;10.50;;;;;;;-1.26;68.23;100168.45;105940;1258;65574;-75
2023/01/30 02:31:04;;;;;;;17.80;10.80;;;;;;;-1.27;67.78;100164.67;105935;1253;60338;-76
2023/01/30 02:33:40;;;;;;;14.10;9.80;;;;;;;-1.27;67.53;100164.70;105815;1259;60451;-77
2023/01/30 02:36:47;;;;;;;13.40;9.70;;;;;;;-1.27;67.36;100166.95;105926;1253;65755;-76
2023/01/30 02:39:48;;;;;;;13.00;8.80;;;;;;;-1.28;67.11;100161.78;105801;1259;60333;-76
2023/01/30 02:42:25;;;;;;;12.30;8.50;;;;;;;-1.28;66.93;100159.54;105865;1258;64213;-77
2023/01/30 02:44:53;;;;;;;13.80;9.10;;;;;;;-1.28;66.65;100162.13;105710;1254;60447;-79
2023/01/30 02:47:24;;;;;;;13.70;9.00;;;;;;;-1.29;66.33;100165.80;105791;1259;60454;-77
2023/01/30 02:50:19;;;;;;;11.40;8.80;;;;;;;-1.31;66.03;100163.27;105821;1254;66453;-79
2023/01/30 02:52:47;;;;;;;9.50;5.40;;;;;;;-1.31;65.95;100167.60;105714;1254;60417;-76
2023/01/30 02:55:21;;;;;;;12.40;8.40;;;;;;;-1.32;65.47;100167.48;105788;1259;64474;-76
2023/01/30 02:57:50;;;;;;;13.00;8.30;;;;;;;-1.34;65.24;100164.09;105760;1260;60509;-75
2023/01/30 03:00:43;;;;;;;12.70;8.40;;;;;;;-1.33;65.14;100158.71;105802;1253;60289;-76
2023/01/30 03:03:29;;;;;;;11.80;8.30;;;;;;;-1.32;64.97;100159.19;105758;1259;66529;-76
2023/01/30 03:06:16;;;;;;;12.70;8.20;;;;;;;-1.31;64.93;100154.13;105855;1253;60506;-77
2023/01/30 03:09:03;;;;;;;13.40;8.60;;;;;;;-1.30;64.67;100151.17;106016;1259;65368;-76
2023/01/30 03:11:46;;;;;;;14.20;8.90;;;;;;;-1.32;64.50;100156.77;105830;1254;60667;-75
2023/01/30 03:14:20;;;;;;;13.30;8.30;;;;;;;-1.32;64.37;100152.10;105808;1259;60329;-76
2023/01/30 03:16:49;;;;;;;10.80;7.30;;;;;;;-1.35;63.73;100153.05;105787;1260;66836;-75
2023/01/30 03:19:17;;;;;;;19.70;13.60;;;;;;;-1.40;63.26;100149.61;105730;1260;60454;-76
2023/01/30 03:21:49;;;;;;;12.60;9.10;;;;;;;-1.45;63.03;100149.75;105817;1258;65577;-75
2023/01/30 03:24:17;;;;;;;11.50;7.80;;;;;;;-1.44;62.85;100145.95;105553;1254;60438;-75
2023/01/30 03:27:12;;;;;;;12.80;8.00;;;;;;;-1.43;62.52;100143.67;105425;1254;60475;-75
2023/01/30 03:29:43;;;;;;;10.80;7.30;;;;;;;-1.42;62.42;100146.42;105762;1260;66729;-76
2023/01/30 03:32:11;;;;;;;11.20;7.20;;;;;;;-1.43;62.33;100147.64;105773;1259;60415;-75
2023/01/30 03:34:40;;;;;;;10.80;7.20;;;;;;;-1.43;62.34;100145.07;105881;1257;64716;-75
2023/01/30 03:37:10;;;;;;;11.50;7.70;;;;;;;-1.44;61.95;100143.20;105839;1259;60323;-74
2023/01/30 03:39:38;;;;;;;11.60;8.10;;;;;;;-1.46;61.78;100144.27;105764;1252;61143;-75
2023/01/30 03:42:07;;;;;;;10.70;7.30;;;;;;;-1.47;61.72;100143.63;105881;1258;67095;-75
2023/01/30 03:44:35;;;;;;;11.20;7.60;;;;;;;-1.49;61.50;100138.15;105760;1260;60514;-75
2023/01/30 03:47:03;;;;;;;10.40;7.30;;;;;;;-1.51;61.37;100130.83;105938;1259;65687;-75
2023/01/30 03:49:31;;;;;;;10.90;7.10;;;;;;;-1.52;61.35;100130.16;105761;1254;60491;-75
2023/01/30 03:51:59;;;;;;;11.60;7.60;;;;;;;-1.51;61.37;100131.34;105835;1257;60461;-74
2023/01/30 03:54:28;;;;;;;10.20;6.40;;;;;;;-1.51;61.40;100130.48;105748;1259;66449;-75
2023/01/30 03:56:56;;;;;;;11.90;7.20;;;;;;;-1.52;61.32;100134.47;105920;1257;60619;-76
2023/01/30 03:59:24;;;;;;;12.10;7.70;;;;;;;-1.53;61.23;100133.99;106070;1257;65664;-76
2023/01/30 04:02:01;;;;;;;11.30;7.40;;;;;;;-1.55;61.00;100133.87;105787;1258;60525;-75
2023/01/30 04:04:30;;;;;;;11.00;7.20;;;;;;;-1.58;60.87;100131.55;106041;1253;60531;-76
2023/01/30 04:06:58;;;;;;;14.20;8.10;;;;;;;-1.60;60.93;100131.80;105900;1257;66429;-75
2023/01/30 04:09:27;;;;;;;13.80;8.20;;;;;;;-1.59;61.06;100135.59;105827;1258;60805;-75
2023/01/30 04:11:56;;;;;;;13.20;7.80;;;;;;;-1.59;61.11;100129.52;105919;1260;65503;-76
2023/01/30 04:14:25;;;;;;;14.80;8.00;;;;;;;-1.59;61.11;100124.88;106127;1257;60335;-77
2023/01/30 04:17:20;;;;;;;13.90;8.20;;;;;;;-1.61;61.02;100124.25;106001;1254;61988;-75
2023/01/30 04:20:19;;;;;;;12.90;7.70;;;;;;;-1.63;61.00;100124.14;105826;1254;67085;-76
2023/01/30 04:22:50;;;;;;;12.90;7.50;;;;;;;-1.64;60.86;100119.67;105894;1255;60505;-76
2023/01/30 04:25:19;;;;;;;12.70;7.80;;;;;;;-1.65;60.79;100119.88;105825;1257;65642;-77
2023/01/30 04:27:48;;;;;;;10.70;7.20;;;;;;;-1.65;60.73;100121.79;105741;1254;60428;-75
2023/01/30 04:30:22;;;;;;;11.80;8.30;;;;;;;-1.65;60.70;100120.73;105777;1254;60437;-76
2023/01/30 04:32:58;;;;;;;11.70;7.70;;;;;;;-1.64;60.64;100117.27;105770;1266;66763;-77
2023/01/30 04:35:27;;;;;;;12.80;8.10;;;;;;;-1.63;60.63;100114.13;105900;1254;60597;-76
2023/01/30 04:37:55;;;;;;;12.30;7.70;;;;;;;-1.61;60.62;100114.61;105745;1258;65798;-76
2023/01/30 04:40:26;;;;;;;17.30;9.80;;;;;;;-1.61;60.60;100112.69;105883;1254;61008;-77
2023/01/30 04:42:55;;;;;;;20.20;11.40;;;;;;;-1.61;60.54;100110.44;105900;1254;60504;-76
2023/01/30 04:45:35;;;;;;;18.50;10.20;;;;;;;-1.61;60.64;100108.00;105828;1257;66326;-77
2023/01/30 04:48:04;;;;;;;12.50;7.90;;;;;;;-1.61;60.37;100106.84;105793;1253;60416;-77
2023/01/30 04:50:32;;;;;;;10.70;7.40;;;;;;;-1.64;60.12;100107.25;105649;1253;64315;-75
2023/01/30 04:53:00;;;;;;;14.10;8.30;;;;;;;-1.65;60.09;100103.13;105850;1257;60339;-76
2023/01/30 04:55:28;;;;;;;11.70;7.70;;;;;;;-1.67;59.97;100106.47;105721;1254;60470;-76
2023/01/30 04:57:57;;;;;;;10.20;7.30;;;;;;;-1.69;60.03;100106.55;105767;1253;66435;-76
2023/01/30 05:00:25;;;;;;;12.60;8.10;;;;;;;-1.70;60.03;100101.61;105643;1259;60454;-80
2023/01/30 05:03:00;;;;;;;10.90;7.40;;;;;;;-1.70;60.15;100102.30;105776;1254;65317;-79
2023/01/30 05:05:46;;;;;;;11.50;7.90;;;;;;;-1.67;60.20;100107.00;102805;1292;601598;-79
2023/01/30 05:08:15;;;;;;;12.30;8.30;;;;;;;-1.68;60.18;100102.72;105025;1269;59365;-78
2023/01/30 05:10:43;;;;;;;15.10;10.00;;;;;;;-1.68;60.35;100102.02;104956;1270;59787;-80
2023/01/30 05:13:11;;;;;;;14.20;9.60;;;;;;;-1.68;60.37;100097.90;104960;1266;65037;-79
2023/01/30 05:15:40;;;;;;;13.00;8.60;;;;;;;-1.67;60.52;100093.21;105005;1270;60380;-78
2023/01/30 05:18:08;;;;;;;11.30;8.30;;;;;;;-1.67;60.53;100093.86;104927;1267;64481;-78
2023/01/30 05:20:36;;;;;;;11.40;7.90;;;;;;;-1.66;60.59;100096.09;104975;1264;182448;-79
2023/01/30 05:23:05;;;;;;;11.90;8.10;;;;;;;-1.66;60.48;100096.96;104981;1266;59349;-79
2023/01/30 05:25:33;;;;;;;12.40;8.80;;;;;;;-1.69;60.38;100095.33;105830;1253;64855;-75
2023/01/30 05:28:02;;;;;;;11.90;8.20;;;;;;;-1.70;60.49;100093.65;106357;1253;59823;-74
2023/01/30 05:30:31;;;;;;;12.80;8.30;;;;;;;-1.71;60.53;100093.35;105926;1252;65572;-79
2023/01/30 05:32:59;;;;;;;12.00;8.10;;;;;;;-1.71;60.61;100092.13;105779;1259;59555;-75
2023/01/30 05:35:28;;;;;;;12.00;8.00;;;;;;;-1.70;60.66;100092.43;105868;1253;59638;-75
2023/01/30 05:37:57;;;;;;;12.50;7.60;;;;;;;-1.69;60.72;100092.60;105804;1257;66019;-74
2023/01/30 05:40:26;;;;;;;14.00;8.30;;;;;;;-1.69;60.76;100092.05;105980;1253;59906;-75
2023/01/30 05:42:55;;;;;;;16.00;8.70;;;;;;;-1.68;60.76;100090.48;105652;1259;65557;-76
2023/01/30 05:45:24;;;;;;;15.60;9.70;;;;;;;-1.67;60.74;100092.33;106140;1259;59615;-75
2023/01/30 05:47:52;;;;;;;14.50;8.90;;;;;;;-1.66;60.82;100096.61;106213;1255;60121;-78
2023/01/30 05:50:28;;;;;;;11.70;7.80;;;;;;;-1.66;60.60;100095.57;106252;1256;67193;-72
2023/01/30 05:52:57;;;;;;;12.50;8.30;;;;;;;-1.66;60.60;100093.16;106031;1253;59557;-72
2023/01/30 05:55:26;;;;;;;14.30;8.80;;;;;;;-1.65;60.48;100096.23;105996;1255;65541;-71
2023/01/30 05:57:54;;;;;;;17.10;8.70;;;;;;;-1.66;60.36;100099.87;105460;1257;59672;-71
2023/01/30 06:00:47;;;;;;;13.70;8.50;;;;;;;-1.65;60.49;100102.44;105747;1253;59753;-72
2023/01/30 06:03:14;;;;;;;14.40;9.20;;;;;;;-1.64;60.48;100104.31;106737;1253;64864;-72
2023/01/30 08:12:29;;;;;;;13.80;9.30;;;;;;;-1.81;58.89;100000.71;102889;1288;605133;-78
2023/01/30 08:14:57;;;;;;;15.40;9.20;;;;;;;-1.25;57.42;99994.99;105408;1267;153084;-79
2023/01/30 08:17:25;;;;;;;11.00;8.70;;;;;;;-1.24;57.22;99990.29;105219;1267;59250;-77
2023/01/30 08:19:54;;;;;;;13.40;8.90;;;;;;;-1.24;56.85;99993.08;106232;1255;65167;-78
2023/01/30 08:22:22;;;;;;;13.80;10.20;;;;;;;-1.27;56.73;99981.92;105763;1260;59346;-78
2023/01/30 08:24:50;;;;;;;12.20;8.40;;;;;;;-1.26;56.99;99982.41;105873;1254;65220;-78
2023/01/30 08:27:18;;;;;;;17.60;10.50;;;;;;;-1.24;56.83;99978.20;105828;1254;59356;-81
2023/01/30 08:29:47;;;;;;;13.90;9.20;;;;;;;-1.22;56.81;99971.04;105725;1257;59332;-78
2023/01/30 08:32:15;;;;;;;13.30;8.90;;;;;;;-1.18;56.84;99973.49;105841;1257;64044;-78
2023/01/30 08:34:44;;;;;;;15.30;9.20;;;;;;;-1.19;56.50;99969.73;105983;1259;60254;-79
2023/01/30 08:37:12;;;;;;;13.50;8.10;;;;;;;-1.22;56.56;99967.27;105844;1260;64687;-79
2023/01/30 08:39:41;;;;;;;11.70;8.30;;;;;;;-1.23;56.54;99962.98;105691;1261;59653;-79
2023/01/30 08:42:09;;;;;;;14.90;9.20;;;;;;;-1.23;56.61;99952.26;105885;1255;59628;-78
2023/01/30 08:44:37;;;;;;;15.50;8.90;;;;;;;-1.22;56.78;99945.50;105919;1258;64981;-80
2023/01/30 08:47:05;;;;;;;14.10;8.50;;;;;;;-1.22;56.80;99947.53;105846;1257;59750;-78
2023/01/30 08:55:55;;;;;;;12.70;8.50;;;;;;;-1.22;56.72;99934.77;102668;1292;607763;-78
2023/01/30 08:58:22;;;;;;;12.00;9.10;;;;;;;-1.25;56.90;99928.86;105852;1259;59287;-79
2023/01/30 09:00:49;;;;;;;16.00;8.70;;;;;;;-1.23;57.02;99920.99;105860;1260;59192;-80
2023/01/30 09:03:16;;;;;;;12.40;8.40;;;;;;;-1.19;57.10;99919.43;105778;1258;64854;-78
2023/01/30 09:05:44;;;;;;;12.00;8.30;;;;;;;-1.17;57.02;99915.37;105665;1261;59996;-79
2023/01/30 09:08:11;;;;;;;13.50;9.20;;;;;;;-1.16;56.90;99911.39;105688;1258;160278;-79
2023/01/30 09:10:38;;;;;;;13.90;8.40;;;;;;;-1.16;57.02;99900.66;106103;1257;59282;-79
2023/01/30 09:13:25;;;;;;;13.30;8.90;;;;;;;-1.11;56.95;99897.23;105961;1252;59266;-80
2023/01/30 09:15:53;;;;;;;12.40;8.50;;;;;;;-1.08;56.98;99896.58;106002;1253;65329;-80
2023/01/30 09:18:20;;;;;;;12.30;8.60;;;;;;;-1.05;56.81;99895.42;105896;1259;60177;-81
2023/01/30 09:20:47;;;;;;;13.80;9.70;;;;;;;-1.04;56.50;99890.91;105906;1255;65789;-81
2023/01/30 09:23:14;;;;;;;13.40;9.80;;;;;;;-1.06;56.34;99886.66;106139;1255;59609;-80
2023/01/30 09:25:45;;;;;;;12.60;8.50;;;;;;;-1.07;56.21;99884.27;106027;1253;59633;-81
2023/01/30 09:28:12;;;;;;;14.00;9.80;;;;;;;-1.08;56.15;99879.45;105760;1259;65676;-80
2023/01/30 09:30:39;;;;;;;12.20;8.00;;;;;;;-1.08;56.24;99875.48;106035;1254;59506;-79
2023/01/30 09:33:09;;;;;;;14.70;10.40;;;;;;;-1.07;56.13;99870.80;106086;1256;65738;-80
2023/01/30 09:35:35;;;;;;;13.20;9.70;;;;;;;-1.08;56.12;99862.16;106252;1251;59526;-81
2023/01/30 09:38:03;;;;;;;13.40;10.00;;;;;;;-1.06;56.21;99858.84;106087;1254;59495;-81
2023/01/30 09:40:33;;;;;;;13.50;9.70;;;;;;;-1.06;56.08;99858.83;106000;1257;65875;-80
2023/01/30 09:43:18;;;;;;;16.30;10.10;;;;;;;-1.07;56.05;99853.14;105792;1257;59725;-80
2023/01/30 09:45:48;;;;;;;15.00;9.00;;;;;;;-1.04;56.17;99849.59;105788;1257;65509;-80
2023/01/30 09:48:20;;;;;;;14.00;9.30;;;;;;;-1.01;56.03;99844.77;105844;1257;59544;-80
2023/01/30 09:50:48;;;;;;;14.70;9.20;;;;;;;-0.99;55.93;99835.55;105776;1264;59635;-82
2023/01/30 09:53:29;;;;;;;13.70;8.50;;;;;;;-0.98;56.07;99832.89;106067;1257;65761;-80
2023/01/30 09:55:57;;;;;;;14.00;9.60;;;;;;;-0.95;55.87;99826.20;105936;1259;59576;-81
2023/01/30 09:58:24;;;;;;;12.80;7.50;;;;;;;-0.95;55.82;99823.11;106025;1257;64668;-81
2023/01/30 10:00:53;;;;;;;12.60;8.50;;;;;;;-0.94;55.82;99824.98;105974;1254;61337;-82
2023/01/30 10:03:35;;;;;;;13.10;9.30;;;;;;;-0.93;55.86;99819.61;108063;1254;59116;-84
2023/01/30 10:06:12;;;;;;;12.80;9.20;;;;;;;-0.91;55.93;99809.97;106773;1254;64271;-81
2023/01/30 10:08:59;;;;;;;13.70;9.40;;;;;;;-0.87;55.99;99806.54;106045;1255;60210;-81
2023/01/30 10:11:48;;;;;;;19.20;11.30;;;;;;;-0.81;56.11;99795.94;106050;1257;64554;-82
2023/01/30 10:14:39;;;;;;;16.40;9.60;;;;;;;-0.75;55.96;99794.45;106024;1255;59721;-82
2023/01/30 10:17:39;;;;;;;39.40;13.30;;;;;;;-0.70;55.90;99789.56;105866;1257;59523;-82
2023/01/30 10:20:24;;;;;;;14.60;10.10;;;;;;;-0.67;55.79;99784.77;106015;1256;65817;-81
2023/01/30 10:23:12;;;;;;;16.60;10.80;;;;;;;-0.66;55.58;99789.06;105749;1260;59653;-81
2023/01/30 10:25:47;;;;;;;13.70;10.10;;;;;;;-0.67;55.48;99781.49;105955;1256;66018;-81
2023/01/30 10:28:23;;;;;;;15.80;10.20;;;;;;;-0.65;55.55;99780.55;106063;1258;59727;-78
2023/01/30 10:30:51;;;;;;;15.30;10.90;;;;;;;-0.65;55.39;99768.27;105865;1254;59625;-82
2023/01/30 10:33:31;;;;;;;15.00;10.60;;;;;;;-0.66;55.37;99767.11;106000;1257;65573;-81
2023/01/30 10:36:06;;;;;;;16.60;11.10;;;;;;;-0.68;55.29;99765.94;105938;1254;59522;-80
2023/01/30 10:38:38;;;;;;;14.50;10.40;;;;;;;-0.69;55.22;99756.84;105920;1254;64394;-80
2023/01/30 10:41:29;;;;;;;9.10;7.00;;;;;;;-0.71;55.13;99753.13;105956;1258;59653;-79
2023/01/30 10:44:17;;;;;;;13.90;9.50;;;;;;;-0.70;55.11;99744.63;105944;1257;59604;-80
2023/01/30 10:47:20;;;;;;;13.00;9.80;;;;;;;-0.69;55.37;99736.96;105962;1258;65658;-80
2023/01/30 10:49:51;;;;;;;12.10;9.30;;;;;;;-0.63;55.40;99732.39;105995;1254;59968;-80
2023/01/30 10:52:25;;;;;;;24.90;10.40;;;;;;;-0.62;55.14;99729.92;105830;1254;64558;-80
2023/01/30 10:55:05;;;;;;;12.80;9.30;;;;;;;-0.66;55.09;99714.86;106130;1256;59564;-79
2023/01/30 10:57:57;;;;;;;12.60;9.10;;;;;;;-0.64;55.19;99709.80;106047;1255;59650;-81
2023/01/30 11:00:24;;;;;;;13.10;9.20;;;;;;;-0.65;55.15;99710.17;105929;1257;65715;-79
2023/01/30 11:02:51;;;;;;;12.90;9.20;;;;;;;-0.66;55.18;99701.92;106005;1257;59476;-80
2023/01/30 11:05:20;;;;;;;12.40;7.80;;;;;;;-0.65;55.33;99694.44;105942;1254;65519;-79
2023/01/30 11:07:47;;;;;;;15.40;10.50;;;;;;;-0.61;55.21;99695.98;105997;1254;59538;-80
2023/01/30 11:10:25;;;;;;;13.70;10.00;;;;;;;-0.61;55.16;99692.00;105902;1254;59654;-79
2023/01/30 11:12:59;;;;;;;15.60;9.90;;;;;;;-0.63;55.20;99680.19;105896;1255;64821;-79
2023/01/30 11:15:47;;;;;;;13.20;9.40;;;;;;;-0.65;55.24;99681.14;106333;1253;59784;-80
2023/01/30 11:18:15;;;;;;;13.10;9.00;;;;;;;-0.66;55.38;99679.29;105913;1254;65453;-77
2023/01/30 11:21:04;;;;;;;13.10;8.70;;;;;;;-0.64;55.55;99679.36;105825;1253;59558;-79
2023/01/30 11:23:33;;;;;;;11.60;8.80;;;;;;;-0.61;55.59;99674.72;106132;1257;59843;-80
2023/01/30 11:26:01;;;;;;;12.20;9.00;;;;;;;-0.59;55.53;99670.83;105926;1258;65851;-80
2023/01/30 11:28:40;;;;;;;15.20;10.60;;;;;;;-0.62;55.47;99666.11;105854;1254;59502;-79
2023/01/30 11:31:23;;;;;;;12.80;9.60;;;;;;;-0.64;55.67;99668.31;106071;1254;65589;-80
2023/01/30 11:34:14;;;;;;;15.00;10.20;;;;;;;-0.68;55.68;99657.25;105907;1260;59602;-80
2023/01/30 11:36:41;;;;;;;15.30;10.10;;;;;;;-0.73;55.74;99653.98;106002;1254;59713;-81
2023/01/30 11:39:11;;;;;;;12.40;9.90;;;;;;;-0.77;55.98;99649.86;105894;1259;65953;-81
2023/01/30 11:41:58;;;;;;;13.60;9.80;;;;;;;-0.80;56.10;99644.48;106059;1253;59818;-81
2023/01/30 11:44:26;;;;;;;14.10;9.10;;;;;;;-0.82;56.15;99639.35;106067;1254;65568;-81
2023/01/30 11:46:53;;;;;;;15.30;9.90;;;;;;;-0.82;56.31;99633.86;106020;1260;59513;-80
2023/01/30 11:49:20;;;;;;;26.40;16.50;;;;;;;-0.82;56.41;99628.50;106083;1257;59690;-80
2023/01/30 11:52:07;;;;;;;18.30;12.20;;;;;;;-0.79;56.65;99620.58;106023;1257;65883;-80
2023/01/30 11:54:37;;;;;;;15.10;10.30;;;;;;;-0.75;56.69;99626.62;105984;1254;59741;-81
2023/01/30 11:57:05;;;;;;;15.00;9.60;;;;;;;-0.73;56.61;99624.60;106100;1257;64716;-81
2023/01/30 11:59:38;;;;;;;13.80;9.50;;;;;;;-0.73;56.49;99618.60;106078;1254;59610;-81
2023/01/30 12:02:13;;;;;;;14.10;9.90;;;;;;;-0.77;56.49;99619.60;105996;1254;59653;-81
2023/01/30 14:18:27;;;;;;;16.60;14.30;;;;;;;-1.51;62.76;99525.73;103548;1283;605212;-75
2023/01/30 14:21:19;;;;;;;19.30;14.20;;;;;;;-1.03;61.32;99517.45;105019;1270;96974;-75
2023/01/30 14:23:57;;;;;;;21.50;16.10;;;;;;;-1.06;61.23;99516.88;105076;1264;59359;-76
2023/01/30 14:26:46;;;;;;;15.90;12.80;;;;;;;-1.07;61.24;99513.98;105605;1258;63749;-77
2023/01/30 14:29:36;;;;;;;19.70;14.50;;;;;;;-1.07;61.24;99513.50;105351;1261;59216;-75
2023/01/30 14:32:08;;;;;;;21.40;14.60;;;;;;;-1.09;61.20;99510.82;105502;1260;65408;-75
2023/01/30 14:34:38;;;;;;;25.10;16.90;;;;;;;-1.14;61.14;99508.81;105429;1256;59239;-72
2023/01/30 14:37:43;;;;;;;20.30;13.90;;;;;;;-1.16;61.21;99513.73;105547;1259;59338;-70
2023/01/30 14:40:20;;;;;;;22.30;15.80;;;;;;;-1.20;61.36;99509.39;105692;1260;63788;-70
2023/01/30 14:43:11;;;;;;;19.20;13.90;;;;;;;-1.22;61.38;99509.84;105346;1261;60204;-71
2023/01/30 14:45:49;;;;;;;21.40;14.60;;;;;;;-1.24;61.52;99507.70;105555;1257;65579;-71
2023/01/30 14:48:28;;;;;;;19.20;13.90;;;;;;;-1.26;61.64;99505.88;105542;1260;59747;-71
2023/01/30 14:51:15;;;;;;;22.00;15.40;;;;;;;-1.27;61.72;99505.03;105519;1256;59740;-71
2023/01/30 14:54:03;;;;;;;20.50;13.10;;;;;;;-1.26;61.80;99504.48;105508;1256;65976;-71
2023/01/30 14:56:48;;;;;;;18.80;11.90;;;;;;;-1.27;61.83;99497.45;105575;1256;62486;-71
2023/01/30 14:59:35;;;;;;;18.00;11.80;;;;;;;-1.29;62.00;99496.36;105367;1256;65605;-71
2023/01/30 15:02:13;;;;;;;20.10;14.50;;;;;;;-1.31;62.01;99497.50;105431;1258;59630;-73
2023/01/30 15:05:07;;;;;;;17.90;12.20;;;;;;;-1.32;62.07;99497.00;105426;1260;59631;-72
2023/01/30 15:07:42;;;;;;;17.80;12.80;;;;;;;-1.33;62.18;99494.10;105602;1260;65963;-72
2023/01/30 15:10:35;;;;;;;17.40;12.10;;;;;;;-1.34;62.22;99492.95;105552;1259;60270;-79
2023/01/30 15:13:23;;;;;;;17.50;12.70;;;;;;;-1.35;62.32;99494.90;105191;1258;65592;-74
2023/01/30 15:16:10;;;;;;;19.80;13.90;;;;;;;-1.36;62.42;99491.63;105482;1257;59721;-75
2023/01/30 15:19:01;;;;;;;20.10;14.30;;;;;;;-1.35;62.52;99490.58;105224;1259;59619;-76
2023/01/30 15:21:45;;;;;;;21.60;15.40;;;;;;;-1.34;62.59;99487.61;105530;1257;64817;-77
2023/01/30 15:24:34;;;;;;;17.90;12.80;;;;;;;-1.34;62.72;99487.79;105824;1257;59548;-75
2023/01/30 15:27:10;;;;;;;17.10;11.80;;;;;;;-1.34;62.61;99486.94;105259;1260;65678;-77
2023/01/30 15:29:51;;;;;;;18.90;13.70;;;;;;;-1.36;62.66;99484.05;105623;1254;59716;-78
2023/01/30 15:32:21;;;;;;;15.50;12.50;;;;;;;-1.38;62.72;99483.80;105717;1255;59542;-77
2023/01/30 15:34:54;;;;;;;17.30;12.80;;;;;;;-1.39;62.70;99480.77;105616;1254;64947;-79
2023/01/30 15:37:28;;;;;;;18.20;14.10;;;;;;;-1.39;62.75;99476.08;105572;1255;60126;-75
2023/01/30 15:40:16;;;;;;;16.90;12.70;;;;;;;-1.39;62.81;99479.17;105622;1260;64560;-76
2023/01/30 15:42:52;;;;;;;16.30;12.50;;;;;;;-1.39;62.85;99483.33;105726;1258;59614;-77
2023/01/30 15:45:26;;;;;;;21.50;15.00;;;;;;;-1.40;62.91;99479.90;105746;1259;59709;-76
2023/01/30 15:48:19;;;;;;;23.30;16.20;;;;;;;-1.39;63.02;99476.26;105703;1258;65997;-76
2023/01/30 15:50:48;;;;;;;21.60;14.40;;;;;;;-1.40;63.09;99473.00;106046;1254;60204;-76
2023/01/30 15:53:16;;;;;;;22.50;15.60;;;;;;;-1.41;63.12;99469.25;105512;1254;65512;-76
2023/01/30 15:55:50;;;;;;;23.00;15.90;;;;;;;-1.40;63.09;99469.42;105671;1254;59658;-76
2023/01/30 15:58:20;;;;;;;28.60;17.30;;;;;;;-1.41;63.21;99463.38;106934;1259;59573;-75
2023/01/30 16:00:54;;;;;;;25.10;16.20;;;;;;;-1.40;63.34;99463.52;106760;1258;65825;-76
2023/01/30 16:03:30;;;;;;;27.70;17.00;;;;;;;-1.39;63.27;99462.95;105827;1256;59787;-76
2023/01/30 16:05:58;;;;;;;20.50;14.30;;;;;;;-1.37;63.31;99460.63;105829;1256;65641;-76
2023/01/30 16:08:32;;;;;;;21.10;15.10;;;;;;;-1.37;63.37;99459.73;105830;1259;59623;-76
2023/01/30 16:11:00;;;;;;;19.30;12.40;;;;;;;-1.37;63.38;99458.02;106224;1256;59725;-78
2023/01/30 16:13:29;;;;;;;18.40;12.70;;;;;;;-1.37;63.46;99458.38;105647;1257;66122;-71